sensor_id;sensor_type;location;lat;lon;timestamp;P1;durP1;ratioP1;P2;durP2;ratioP2
12780;SDS011;6454;43.304;24.344;2024-02-21T00:02:04;9.93;;;4.45;;
12780;SDS011;6454;43.304;24.344;2024-02-21T00:04:30;10.07;;;5.00;;
12780;SDS011;6454;43.304;24.344;2024-02-21T00:06:55;7.93;;;4.57;;
12780;SDS011;6454;43.304;24.344;2024-02-21T00:09:20;9.30;;;4.68;;
12780;SDS011;6454;43.304;24.344;2024-02-21T00:11:46;7.30;;;4.78;;
12780;SDS011;6454;43.304;24.344;2024-02-21T00:14:12;9.60;;;4.82;;
12780;SDS011;6454;43.304;24.344;2024-02-21T00:16:38;7.65;;;4.40;;
12780;SDS011;6454;43.304;24.344;2024-02-21T00:19:03;7.75;;;4.13;;
12780;SDS011;6454;43.304;24.344;2024-02-21T00:21:29;6.70;;;4.20;;
12780;SDS011;6454;43.304;24.344;2024-02-21T00:23:54;6.60;;;4.03;;
12780;SDS011;6454;43.304;24.344;2024-02-21T00:26:20;8.60;;;4.65;;
12780;SDS011;6454;43.304;24.344;2024-02-21T00:28:46;5.80;;;3.67;;
12780;SDS011;6454;43.304;24.344;2024-02-21T00:31:11;6.93;;;4.47;;
12780;SDS011;6454;43.304;24.344;2024-02-21T00:33:37;7.55;;;4.32;;
12780;SDS011;6454;43.304;24.344;2024-02-21T00:36:02;6.05;;;3.65;;
12780;SDS011;6454;43.304;24.344;2024-02-21T00:38:28;6.68;;;3.97;;
12780;SDS011;6454;43.304;24.344;2024-02-21T00:40:54;8.18;;;4.10;;
12780;SDS011;6454;43.304;24.344;2024-02-21T00:43:19;6.28;;;3.70;;
12780;SDS011;6454;43.304;24.344;2024-02-21T00:45:48;6.03;;;3.53;;
12780;SDS011;6454;43.304;24.344;2024-02-21T00:48:14;5.63;;;3.72;;
12780;SDS011;6454;43.304;24.344;2024-02-21T00:50:39;8.13;;;3.85;;
12780;SDS011;6454;43.304;24.344;2024-02-21T00:53:05;5.40;;;3.28;;
12780;SDS011;6454;43.304;24.344;2024-02-21T00:55:30;8.70;;;3.80;;
12780;SDS011;6454;43.304;24.344;2024-02-21T00:57:56;5.82;;;3.58;;
12780;SDS011;6454;43.304;24.344;2024-02-21T01:00:21;4.60;;;3.45;;
12780;SDS011;6454;43.304;24.344;2024-02-21T01:02:47;5.57;;;3.50;;
12780;SDS011;6454;43.304;24.344;2024-02-21T01:05:12;5.95;;;3.40;;
12780;SDS011;6454;43.304;24.344;2024-02-21T01:07:38;6.13;;;3.78;;
12780;SDS011;6454;43.304;24.344;2024-02-21T01:10:03;5.88;;;3.60;;
12780;SDS011;6454;43.304;24.344;2024-02-21T01:12:29;6.57;;;3.42;;
12780;SDS011;6454;43.304;24.344;2024-02-21T01:14:55;6.60;;;3.13;;
12780;SDS011;6454;43.304;24.344;2024-02-21T01:17:20;6.50;;;3.50;;
12780;SDS011;6454;43.304;24.344;2024-02-21T01:19:46;7.63;;;3.60;;
12780;SDS011;6454;43.304;24.344;2024-02-21T01:22:11;6.13;;;3.55;;
12780;SDS011;6454;43.304;24.344;2024-02-21T01:24:37;5.70;;;3.78;;
12780;SDS011;6454;43.304;24.344;2024-02-21T01:27:02;5.75;;;4.25;;
12780;SDS011;6454;43.304;24.344;2024-02-21T01:31:53;5.50;;;3.30;;
12780;SDS011;6454;43.304;24.344;2024-02-21T01:34:19;5.70;;;3.42;;
12780;SDS011;6454;43.304;24.344;2024-02-21T01:36:44;5.57;;;3.53;;
12780;SDS011;6454;43.304;24.344;2024-02-21T01:39:10;5.88;;;3.53;;
12780;SDS011;6454;43.304;24.344;2024-02-21T01:41:35;6.15;;;3.50;;
12780;SDS011;6454;43.304;24.344;2024-02-21T01:44:00;7.60;;;4.03;;
12780;SDS011;6454;43.304;24.344;2024-02-21T01:46:26;5.07;;;3.63;;
12780;SDS011;6454;43.304;24.344;2024-02-21T01:48:55;5.55;;;3.47;;
12780;SDS011;6454;43.304;24.344;2024-02-21T01:51:22;5.63;;;3.63;;
12780;SDS011;6454;43.304;24.344;2024-02-21T01:53:48;6.72;;;3.58;;
12780;SDS011;6454;43.304;24.344;2024-02-21T01:56:15;5.30;;;3.60;;
12780;SDS011;6454;43.304;24.344;2024-02-21T01:58:42;5.28;;;3.42;;
12780;SDS011;6454;43.304;24.344;2024-02-21T02:01:09;5.30;;;3.42;;
12780;SDS011;6454;43.304;24.344;2024-02-21T02:03:35;6.53;;;3.50;;
12780;SDS011;6454;43.304;24.344;2024-02-21T02:06:02;4.82;;;3.33;;
12780;SDS011;6454;43.304;24.344;2024-02-21T02:08:27;7.63;;;3.78;;
12780;SDS011;6454;43.304;24.344;2024-02-21T02:10:53;4.18;;;3.38;;
12780;SDS011;6454;43.304;24.344;2024-02-21T02:15:45;4.17;;;3.10;;
12780;SDS011;6454;43.304;24.344;2024-02-21T02:18:12;6.97;;;3.92;;
12780;SDS011;6454;43.304;24.344;2024-02-21T02:20:38;6.93;;;4.13;;
12780;SDS011;6454;43.304;24.344;2024-02-21T02:23:11;5.68;;;3.45;;
12780;SDS011;6454;43.304;24.344;2024-02-21T02:25:37;6.20;;;3.78;;
12780;SDS011;6454;43.304;24.344;2024-02-21T02:28:04;8.15;;;3.85;;
12780;SDS011;6454;43.304;24.344;2024-02-21T02:30:33;5.07;;;3.38;;
12780;SDS011;6454;43.304;24.344;2024-02-21T02:33:01;8.68;;;3.55;;
12780;SDS011;6454;43.304;24.344;2024-02-21T02:35:27;8.30;;;3.95;;
12780;SDS011;6454;43.304;24.344;2024-02-21T02:37:52;9.15;;;4.00;;
12780;SDS011;6454;43.304;24.344;2024-02-21T02:40:18;6.82;;;4.07;;
12780;SDS011;6454;43.304;24.344;2024-02-21T02:42:43;7.25;;;4.00;;
12780;SDS011;6454;43.304;24.344;2024-02-21T02:45:09;9.25;;;4.20;;
12780;SDS011;6454;43.304;24.344;2024-02-21T02:47:35;4.93;;;3.53;;
12780;SDS011;6454;43.304;24.344;2024-02-21T02:50:00;5.75;;;3.67;;
12780;SDS011;6454;43.304;24.344;2024-02-21T02:52:26;7.78;;;4.03;;
12780;SDS011;6454;43.304;24.344;2024-02-21T02:54:52;6.57;;;3.85;;
12780;SDS011;6454;43.304;24.344;2024-02-21T02:57:20;6.40;;;3.88;;
12780;SDS011;6454;43.304;24.344;2024-02-21T02:59:49;7.35;;;3.95;;
12780;SDS011;6454;43.304;24.344;2024-02-21T03:02:16;7.18;;;4.03;;
12780;SDS011;6454;43.304;24.344;2024-02-21T03:04:41;9.90;;;4.50;;
12780;SDS011;6454;43.304;24.344;2024-02-21T03:07:07;6.10;;;3.58;;
12780;SDS011;6454;43.304;24.344;2024-02-21T03:09:32;6.03;;;3.33;;
12780;SDS011;6454;43.304;24.344;2024-02-21T03:11:58;6.65;;;4.32;;
12780;SDS011;6454;43.304;24.344;2024-02-21T03:14:30;6.38;;;4.03;;
12780;SDS011;6454;43.304;24.344;2024-02-21T03:16:56;7.05;;;4.22;;
12780;SDS011;6454;43.304;24.344;2024-02-21T03:19:22;5.85;;;3.78;;
12780;SDS011;6454;43.304;24.344;2024-02-21T03:21:47;6.32;;;4.03;;
12780;SDS011;6454;43.304;24.344;2024-02-21T03:24:14;6.40;;;4.22;;
12780;SDS011;6454;43.304;24.344;2024-02-21T03:26:46;7.47;;;3.72;;
12780;SDS011;6454;43.304;24.344;2024-02-21T03:29:14;6.57;;;4.00;;
12780;SDS011;6454;43.304;24.344;2024-02-21T03:31:40;9.60;;;4.00;;
12780;SDS011;6454;43.304;24.344;2024-02-21T03:34:05;6.82;;;3.78;;
12780;SDS011;6454;43.304;24.344;2024-02-21T03:36:31;7.95;;;4.20;;
12780;SDS011;6454;43.304;24.344;2024-02-21T03:38:56;6.43;;;3.88;;
12780;SDS011;6454;43.304;24.344;2024-02-21T03:41:22;5.72;;;3.72;;
12780;SDS011;6454;43.304;24.344;2024-02-21T03:43:49;7.70;;;3.88;;
12780;SDS011;6454;43.304;24.344;2024-02-21T03:46:14;6.32;;;3.72;;
12780;SDS011;6454;43.304;24.344;2024-02-21T03:48:40;5.35;;;3.40;;
12780;SDS011;6454;43.304;24.344;2024-02-21T03:51:06;7.00;;;3.70;;
12780;SDS011;6454;43.304;24.344;2024-02-21T03:53:31;5.35;;;3.47;;
12780;SDS011;6454;43.304;24.344;2024-02-21T03:55:57;7.15;;;3.75;;
12780;SDS011;6454;43.304;24.344;2024-02-21T03:58:28;5.97;;;3.38;;
12780;SDS011;6454;43.304;24.344;2024-02-21T04:00:53;5.80;;;3.53;;
12780;SDS011;6454;43.304;24.344;2024-02-21T04:03:19;7.85;;;3.83;;
12780;SDS011;6454;43.304;24.344;2024-02-21T04:05:45;5.07;;;3.55;;
12780;SDS011;6454;43.304;24.344;2024-02-21T04:08:11;6.72;;;3.72;;
12780;SDS011;6454;43.304;24.344;2024-02-21T04:10:36;6.25;;;3.72;;
12780;SDS011;6454;43.304;24.344;2024-02-21T04:13:02;7.00;;;3.50;;
12780;SDS011;6454;43.304;24.344;2024-02-21T04:15:28;5.70;;;3.67;;
12780;SDS011;6454;43.304;24.344;2024-02-21T04:17:54;5.45;;;3.95;;
12780;SDS011;6454;43.304;24.344;2024-02-21T04:20:19;6.05;;;3.80;;
12780;SDS011;6454;43.304;24.344;2024-02-21T04:22:45;5.00;;;3.47;;
12780;SDS011;6454;43.304;24.344;2024-02-21T04:25:11;5.95;;;3.88;;
12780;SDS011;6454;43.304;24.344;2024-02-21T04:27:38;4.70;;;3.63;;
12780;SDS011;6454;43.304;24.344;2024-02-21T04:30:04;4.90;;;3.30;;
12780;SDS011;6454;43.304;24.344;2024-02-21T04:32:31;6.05;;;3.63;;
12780;SDS011;6454;43.304;24.344;2024-02-21T04:34:57;6.05;;;3.58;;
12780;SDS011;6454;43.304;24.344;2024-02-21T04:37:22;6.03;;;3.50;;
12780;SDS011;6454;43.304;24.344;2024-02-21T04:39:49;6.30;;;3.30;;
12780;SDS011;6454;43.304;24.344;2024-02-21T04:42:15;4.53;;;3.15;;
12780;SDS011;6454;43.304;24.344;2024-02-21T04:44:42;5.47;;;3.72;;
12780;SDS011;6454;43.304;24.344;2024-02-21T04:47:08;5.43;;;3.28;;
12780;SDS011;6454;43.304;24.344;2024-02-21T04:49:34;5.47;;;3.10;;
12780;SDS011;6454;43.304;24.344;2024-02-21T04:52:00;5.38;;;3.33;;
12780;SDS011;6454;43.304;24.344;2024-02-21T04:54:26;5.80;;;2.65;;
12780;SDS011;6454;43.304;24.344;2024-02-21T04:56:51;5.43;;;3.30;;
12780;SDS011;6454;43.304;24.344;2024-02-21T04:59:17;5.30;;;3.10;;
12780;SDS011;6454;43.304;24.344;2024-02-21T05:01:42;5.38;;;3.40;;
12780;SDS011;6454;43.304;24.344;2024-02-21T05:04:08;7.38;;;3.35;;
12780;SDS011;6454;43.304;24.344;2024-02-21T05:06:37;5.82;;;3.35;;
12780;SDS011;6454;43.304;24.344;2024-02-21T05:09:04;6.32;;;3.70;;
12780;SDS011;6454;43.304;24.344;2024-02-21T05:11:29;6.75;;;3.63;;
12780;SDS011;6454;43.304;24.344;2024-02-21T05:13:55;6.47;;;3.75;;
12780;SDS011;6454;43.304;24.344;2024-02-21T05:16:21;6.18;;;3.80;;
12780;SDS011;6454;43.304;24.344;2024-02-21T05:18:47;5.57;;;3.63;;
12780;SDS011;6454;43.304;24.344;2024-02-21T05:21:12;6.53;;;3.45;;
12780;SDS011;6454;43.304;24.344;2024-02-21T05:23:38;6.45;;;3.72;;
12780;SDS011;6454;43.304;24.344;2024-02-21T05:26:04;6.28;;;4.00;;
12780;SDS011;6454;43.304;24.344;2024-02-21T05:28:30;6.28;;;3.88;;
12780;SDS011;6454;43.304;24.344;2024-02-21T05:30:56;7.45;;;3.70;;
12780;SDS011;6454;43.304;24.344;2024-02-21T05:33:21;7.85;;;3.83;;
12780;SDS011;6454;43.304;24.344;2024-02-21T05:35:47;7.22;;;4.32;;
12780;SDS011;6454;43.304;24.344;2024-02-21T05:38:16;6.78;;;4.53;;
12780;SDS011;6454;43.304;24.344;2024-02-21T05:40:42;7.75;;;4.57;;
12780;SDS011;6454;43.304;24.344;2024-02-21T05:43:08;8.02;;;4.97;;
12780;SDS011;6454;43.304;24.344;2024-02-21T05:45:34;8.75;;;4.75;;
12780;SDS011;6454;43.304;24.344;2024-02-21T05:48:15;6.60;;;4.30;;
12780;SDS011;6454;43.304;24.344;2024-02-21T05:50:41;6.85;;;4.35;;
12780;SDS011;6454;43.304;24.344;2024-02-21T05:53:06;6.88;;;3.88;;
12780;SDS011;6454;43.304;24.344;2024-02-21T05:55:33;5.93;;;4.18;;
12780;SDS011;6454;43.304;24.344;2024-02-21T05:57:59;6.40;;;4.03;;
12780;SDS011;6454;43.304;24.344;2024-02-21T06:00:25;8.70;;;3.78;;
12780;SDS011;6454;43.304;24.344;2024-02-21T06:02:51;7.28;;;4.38;;
12780;SDS011;6454;43.304;24.344;2024-02-21T06:05:17;6.82;;;4.03;;
12780;SDS011;6454;43.304;24.344;2024-02-21T06:07:42;9.02;;;4.68;;
12780;SDS011;6454;43.304;24.344;2024-02-21T06:10:08;9.55;;;5.20;;
12780;SDS011;6454;43.304;24.344;2024-02-21T06:12:34;7.78;;;4.50;;
12780;SDS011;6454;43.304;24.344;2024-02-21T06:14:59;6.72;;;4.15;;
12780;SDS011;6454;43.304;24.344;2024-02-21T06:17:25;8.55;;;4.70;;
12780;SDS011;6454;43.304;24.344;2024-02-21T06:19:50;8.32;;;4.78;;
12780;SDS011;6454;43.304;24.344;2024-02-21T06:22:16;7.63;;;4.70;;
12780;SDS011;6454;43.304;24.344;2024-02-21T06:24:41;9.05;;;4.88;;
12780;SDS011;6454;43.304;24.344;2024-02-21T06:27:08;8.23;;;4.40;;
12780;SDS011;6454;43.304;24.344;2024-02-21T06:29:33;7.88;;;4.88;;
12780;SDS011;6454;43.304;24.344;2024-02-21T06:31:59;9.30;;;4.82;;
12780;SDS011;6454;43.304;24.344;2024-02-21T06:34:26;8.32;;;4.90;;
12780;SDS011;6454;43.304;24.344;2024-02-21T06:36:51;9.18;;;5.00;;
12780;SDS011;6454;43.304;24.344;2024-02-21T06:39:17;9.43;;;5.32;;
12780;SDS011;6454;43.304;24.344;2024-02-21T06:41:42;9.50;;;5.30;;
12780;SDS011;6454;43.304;24.344;2024-02-21T06:44:08;7.93;;;4.15;;
12780;SDS011;6454;43.304;24.344;2024-02-21T06:46:34;8.70;;;5.32;;
12780;SDS011;6454;43.304;24.344;2024-02-21T06:49:00;7.38;;;4.40;;
12780;SDS011;6454;43.304;24.344;2024-02-21T06:51:26;9.20;;;5.00;;
12780;SDS011;6454;43.304;24.344;2024-02-21T06:53:55;7.07;;;4.93;;
12780;SDS011;6454;43.304;24.344;2024-02-21T06:56:23;10.00;;;4.63;;
12780;SDS011;6454;43.304;24.344;2024-02-21T06:58:53;10.35;;;4.68;;
12780;SDS011;6454;43.304;24.344;2024-02-21T07:01:19;7.60;;;4.55;;
12780;SDS011;6454;43.304;24.344;2024-02-21T07:03:45;7.80;;;4.88;;
12780;SDS011;6454;43.304;24.344;2024-02-21T07:06:10;8.43;;;5.25;;
12780;SDS011;6454;43.304;24.344;2024-02-21T07:08:36;7.00;;;4.18;;
12780;SDS011;6454;43.304;24.344;2024-02-21T07:11:02;7.70;;;4.35;;
12780;SDS011;6454;43.304;24.344;2024-02-21T07:13:27;7.70;;;4.82;;
12780;SDS011;6454;43.304;24.344;2024-02-21T07:15:54;7.03;;;4.82;;
12780;SDS011;6454;43.304;24.344;2024-02-21T07:18:20;7.68;;;4.82;;
12780;SDS011;6454;43.304;24.344;2024-02-21T07:20:45;8.60;;;4.75;;
12780;SDS011;6454;43.304;24.344;2024-02-21T07:23:11;7.95;;;4.85;;
12780;SDS011;6454;43.304;24.344;2024-02-21T07:25:36;8.32;;;5.20;;
12780;SDS011;6454;43.304;24.344;2024-02-21T07:28:02;8.82;;;4.93;;
12780;SDS011;6454;43.304;24.344;2024-02-21T07:30:28;8.63;;;5.22;;
12780;SDS011;6454;43.304;24.344;2024-02-21T07:32:53;8.77;;;5.10;;
12780;SDS011;6454;43.304;24.344;2024-02-21T07:35:18;6.68;;;4.68;;
12780;SDS011;6454;43.304;24.344;2024-02-21T07:37:44;7.30;;;4.45;;
12780;SDS011;6454;43.304;24.344;2024-02-21T07:40:13;6.13;;;4.10;;
12780;SDS011;6454;43.304;24.344;2024-02-21T07:42:39;9.27;;;4.40;;
12780;SDS011;6454;43.304;24.344;2024-02-21T07:45:05;9.00;;;4.28;;
12780;SDS011;6454;43.304;24.344;2024-02-21T07:47:32;5.78;;;4.30;;
12780;SDS011;6454;43.304;24.344;2024-02-21T07:49:57;6.85;;;4.45;;
12780;SDS011;6454;43.304;24.344;2024-02-21T07:52:23;5.65;;;4.05;;
12780;SDS011;6454;43.304;24.344;2024-02-21T07:54:49;6.60;;;3.92;;
12780;SDS011;6454;43.304;24.344;2024-02-21T07:57:15;7.28;;;4.20;;
12780;SDS011;6454;43.304;24.344;2024-02-21T07:59:40;7.93;;;4.45;;
12780;SDS011;6454;43.304;24.344;2024-02-21T08:02:07;6.30;;;4.40;;
12780;SDS011;6454;43.304;24.344;2024-02-21T08:04:33;6.68;;;4.22;;
12780;SDS011;6454;43.304;24.344;2024-02-21T08:06:58;6.80;;;4.60;;
12780;SDS011;6454;43.304;24.344;2024-02-21T08:09:29;6.75;;;4.82;;
12780;SDS011;6454;43.304;24.344;2024-02-21T08:11:54;8.55;;;5.35;;
12780;SDS011;6454;43.304;24.344;2024-02-21T08:14:20;8.38;;;5.32;;
12780;SDS011;6454;43.304;24.344;2024-02-21T08:16:46;6.68;;;4.72;;
12780;SDS011;6454;43.304;24.344;2024-02-21T08:19:12;9.77;;;5.32;;
12780;SDS011;6454;43.304;24.344;2024-02-21T08:21:38;7.03;;;4.70;;
12780;SDS011;6454;43.304;24.344;2024-02-21T08:24:04;8.77;;;5.03;;
12780;SDS011;6454;43.304;24.344;2024-02-21T08:26:29;8.25;;;5.05;;
12780;SDS011;6454;43.304;24.344;2024-02-21T08:28:56;7.10;;;4.72;;
12780;SDS011;6454;43.304;24.344;2024-02-21T08:31:24;9.57;;;5.15;;
12780;SDS011;6454;43.304;24.344;2024-02-21T08:33:56;6.80;;;4.53;;
12780;SDS011;6454;43.304;24.344;2024-02-21T08:36:27;6.45;;;4.47;;
12780;SDS011;6454;43.304;24.344;2024-02-21T08:38:53;8.63;;;5.43;;
12780;SDS011;6454;43.304;24.344;2024-02-21T08:41:19;10.07;;;6.30;;
12780;SDS011;6454;43.304;24.344;2024-02-21T08:43:46;9.55;;;5.85;;
12780;SDS011;6454;43.304;24.344;2024-02-21T08:46:12;8.20;;;6.20;;
12780;SDS011;6454;43.304;24.344;2024-02-21T08:48:37;7.63;;;5.43;;
12780;SDS011;6454;43.304;24.344;2024-02-21T08:51:03;8.85;;;5.22;;
12780;SDS011;6454;43.304;24.344;2024-02-21T08:53:28;9.45;;;5.18;;
12780;SDS011;6454;43.304;24.344;2024-02-21T08:55:54;9.30;;;5.60;;
12780;SDS011;6454;43.304;24.344;2024-02-21T08:58:19;10.88;;;5.70;;
12780;SDS011;6454;43.304;24.344;2024-02-21T09:00:45;10.25;;;6.30;;
12780;SDS011;6454;43.304;24.344;2024-02-21T09:03:10;8.70;;;5.32;;
12780;SDS011;6454;43.304;24.344;2024-02-21T09:05:36;9.43;;;5.88;;
12780;SDS011;6454;43.304;24.344;2024-02-21T09:08:01;12.73;;;6.63;;
12780;SDS011;6454;43.304;24.344;2024-02-21T09:10:27;9.20;;;5.82;;
12780;SDS011;6454;43.304;24.344;2024-02-21T09:12:53;9.45;;;5.60;;
12780;SDS011;6454;43.304;24.344;2024-02-21T09:15:18;8.70;;;5.95;;
12780;SDS011;6454;43.304;24.344;2024-02-21T09:17:43;10.40;;;6.63;;
12780;SDS011;6454;43.304;24.344;2024-02-21T09:20:09;7.45;;;5.50;;
12780;SDS011;6454;43.304;24.344;2024-02-21T09:22:36;6.97;;;5.15;;
12780;SDS011;6454;43.304;24.344;2024-02-21T09:25:04;8.77;;;5.78;;
12780;SDS011;6454;43.304;24.344;2024-02-21T09:27:31;9.50;;;5.78;;
12780;SDS011;6454;43.304;24.344;2024-02-21T09:29:56;7.75;;;5.40;;
12780;SDS011;6454;43.304;24.344;2024-02-21T09:32:22;8.75;;;5.63;;
12780;SDS011;6454;43.304;24.344;2024-02-21T09:34:47;10.48;;;5.93;;
12780;SDS011;6454;43.304;24.344;2024-02-21T09:37:13;9.63;;;5.55;;
12780;SDS011;6454;43.304;24.344;2024-02-21T09:39:38;7.93;;;5.50;;
12780;SDS011;6454;43.304;24.344;2024-02-21T09:42:05;7.25;;;4.75;;
12780;SDS011;6454;43.304;24.344;2024-02-21T09:44:38;7.75;;;5.30;;
12780;SDS011;6454;43.304;24.344;2024-02-21T09:49:31;9.43;;;5.45;;
12780;SDS011;6454;43.304;24.344;2024-02-21T09:52:03;8.38;;;4.90;;
12780;SDS011;6454;43.304;24.344;2024-02-21T09:54:32;7.45;;;5.25;;
12780;SDS011;6454;43.304;24.344;2024-02-21T09:57:01;6.93;;;4.75;;
12780;SDS011;6454;43.304;24.344;2024-02-21T09:59:28;5.50;;;3.90;;
12780;SDS011;6454;43.304;24.344;2024-02-21T10:01:54;5.90;;;4.15;;
12780;SDS011;6454;43.304;24.344;2024-02-21T10:04:20;6.25;;;4.28;;
12780;SDS011;6454;43.304;24.344;2024-02-21T10:06:46;7.65;;;4.68;;
12780;SDS011;6454;43.304;24.344;2024-02-21T10:09:21;6.32;;;4.35;;
12780;SDS011;6454;43.304;24.344;2024-02-21T10:11:53;6.13;;;3.97;;
12780;SDS011;6454;43.304;24.344;2024-02-21T10:14:19;6.65;;;4.22;;
12780;SDS011;6454;43.304;24.344;2024-02-21T10:16:46;6.28;;;4.07;;
12780;SDS011;6454;43.304;24.344;2024-02-21T10:19:18;6.63;;;4.45;;
12780;SDS011;6454;43.304;24.344;2024-02-21T10:21:58;6.68;;;4.18;;
12780;SDS011;6454;43.304;24.344;2024-02-21T10:24:28;5.70;;;3.90;;
12780;SDS011;6454;43.304;24.344;2024-02-21T10:27:06;5.28;;;3.72;;
12780;SDS011;6454;43.304;24.344;2024-02-21T10:29:36;5.10;;;4.10;;
12780;SDS011;6454;43.304;24.344;2024-02-21T10:32:12;6.05;;;4.40;;
12780;SDS011;6454;43.304;24.344;2024-02-21T10:34:39;5.35;;;4.03;;
12780;SDS011;6454;43.304;24.344;2024-02-21T10:37:07;5.47;;;4.15;;
12780;SDS011;6454;43.304;24.344;2024-02-21T10:39:38;5.95;;;3.90;;
12780;SDS011;6454;43.304;24.344;2024-02-21T10:42:04;5.20;;;3.90;;
12780;SDS011;6454;43.304;24.344;2024-02-21T10:44:31;3.58;;;3.28;;
12780;SDS011;6454;43.304;24.344;2024-02-21T10:46:57;5.20;;;3.67;;
12780;SDS011;6454;43.304;24.344;2024-02-21T10:49:24;4.50;;;3.45;;
12780;SDS011;6454;43.304;24.344;2024-02-21T10:54:47;5.57;;;3.30;;
12780;SDS011;6454;43.304;24.344;2024-02-21T10:57:21;3.92;;;3.03;;
12780;SDS011;6454;43.304;24.344;2024-02-21T10:59:47;5.10;;;3.55;;
12780;SDS011;6454;43.304;24.344;2024-02-21T11:02:14;3.50;;;2.90;;
12780;SDS011;6454;43.304;24.344;2024-02-21T11:04:40;4.60;;;3.30;;
12780;SDS011;6454;43.304;24.344;2024-02-21T11:07:07;3.80;;;3.08;;
12780;SDS011;6454;43.304;24.344;2024-02-21T11:09:33;3.45;;;3.05;;
12780;SDS011;6454;43.304;24.344;2024-02-21T11:12:04;4.25;;;2.78;;
12780;SDS011;6454;43.304;24.344;2024-02-21T11:14:30;4.10;;;3.20;;
12780;SDS011;6454;43.304;24.344;2024-02-21T11:16:57;4.50;;;3.05;;
12780;SDS011;6454;43.304;24.344;2024-02-21T11:19:28;4.90;;;3.22;;
12780;SDS011;6454;43.304;24.344;2024-02-21T11:21:55;4.22;;;3.20;;
12780;SDS011;6454;43.304;24.344;2024-02-21T11:24:32;3.67;;;2.78;;
12780;SDS011;6454;43.304;24.344;2024-02-21T11:29:58;4.72;;;3.75;;
12780;SDS011;6454;43.304;24.344;2024-02-21T11:32:24;5.50;;;3.97;;
12780;SDS011;6454;43.304;24.344;2024-02-21T11:34:54;5.93;;;3.30;;
12780;SDS011;6454;43.304;24.344;2024-02-21T11:37:21;5.35;;;3.83;;
12780;SDS011;6454;43.304;24.344;2024-02-21T11:39:49;4.70;;;3.45;;
12780;SDS011;6454;43.304;24.344;2024-02-21T11:42:15;4.10;;;3.20;;
12780;SDS011;6454;43.304;24.344;2024-02-21T11:44:40;4.55;;;3.70;;
12780;SDS011;6454;43.304;24.344;2024-02-21T11:47:07;5.38;;;3.65;;
12780;SDS011;6454;43.304;24.344;2024-02-21T11:49:37;5.15;;;3.70;;
12780;SDS011;6454;43.304;24.344;2024-02-21T11:52:04;5.55;;;3.70;;
12780;SDS011;6454;43.304;24.344;2024-02-21T11:54:30;5.70;;;3.75;;
12780;SDS011;6454;43.304;24.344;2024-02-21T11:56:56;5.03;;;3.53;;
12780;SDS011;6454;43.304;24.344;2024-02-21T11:59:22;6.43;;;4.05;;
12780;SDS011;6454;43.304;24.344;2024-02-21T12:01:48;4.80;;;3.75;;
12780;SDS011;6454;43.304;24.344;2024-02-21T12:04:14;5.55;;;4.18;;
12780;SDS011;6454;43.304;24.344;2024-02-21T12:06:42;6.15;;;4.68;;
12780;SDS011;6454;43.304;24.344;2024-02-21T12:09:09;8.65;;;5.32;;
12780;SDS011;6454;43.304;24.344;2024-02-21T12:11:38;5.80;;;4.70;;
12780;SDS011;6454;43.304;24.344;2024-02-21T12:14:04;8.18;;;4.32;;
12780;SDS011;6454;43.304;24.344;2024-02-21T12:16:34;11.57;;;4.97;;
12780;SDS011;6454;43.304;24.344;2024-02-21T12:19:01;7.88;;;5.28;;
12780;SDS011;6454;43.304;24.344;2024-02-21T12:21:35;6.38;;;4.57;;
12780;SDS011;6454;43.304;24.344;2024-02-21T12:24:13;6.65;;;4.68;;
12780;SDS011;6454;43.304;24.344;2024-02-21T12:26:40;6.38;;;4.35;;
12780;SDS011;6454;43.304;24.344;2024-02-21T12:29:06;5.45;;;4.55;;
12780;SDS011;6454;43.304;24.344;2024-02-21T12:31:34;5.55;;;4.35;;
12780;SDS011;6454;43.304;24.344;2024-02-21T12:34:01;6.32;;;4.78;;
12780;SDS011;6454;43.304;24.344;2024-02-21T12:36:26;6.88;;;4.93;;
12780;SDS011;6454;43.304;24.344;2024-02-21T12:38:52;6.50;;;5.28;;
12780;SDS011;6454;43.304;24.344;2024-02-21T12:41:17;8.95;;;5.32;;
12780;SDS011;6454;43.304;24.344;2024-02-21T12:43:43;6.00;;;5.10;;
12780;SDS011;6454;43.304;24.344;2024-02-21T12:46:08;8.05;;;5.78;;
12780;SDS011;6454;43.304;24.344;2024-02-21T12:48:33;10.52;;;6.88;;
12780;SDS011;6454;43.304;24.344;2024-02-21T12:50:59;10.07;;;6.05;;
12780;SDS011;6454;43.304;24.344;2024-02-21T12:53:24;9.48;;;6.47;;
12780;SDS011;6454;43.304;24.344;2024-02-21T12:55:50;8.75;;;6.53;;
12780;SDS011;6454;43.304;24.344;2024-02-21T12:58:16;9.75;;;6.50;;
12780;SDS011;6454;43.304;24.344;2024-02-21T13:00:42;7.53;;;5.40;;
12780;SDS011;6454;43.304;24.344;2024-02-21T13:03:08;7.78;;;5.55;;
12780;SDS011;6454;43.304;24.344;2024-02-21T13:05:35;7.18;;;4.70;;
12780;SDS011;6454;43.304;24.344;2024-02-21T13:08:04;7.03;;;4.57;;
12780;SDS011;6454;43.304;24.344;2024-02-21T13:10:31;6.63;;;4.78;;
12780;SDS011;6454;43.304;24.344;2024-02-21T13:12:58;6.07;;;3.80;;
12780;SDS011;6454;43.304;24.344;2024-02-21T13:15:24;7.82;;;4.43;;
12780;SDS011;6454;43.304;24.344;2024-02-21T13:17:49;5.88;;;4.05;;
12780;SDS011;6454;43.304;24.344;2024-02-21T13:20:14;8.00;;;4.03;;
12780;SDS011;6454;43.304;24.344;2024-02-21T13:22:40;5.93;;;3.45;;
12780;SDS011;6454;43.304;24.344;2024-02-21T13:25:06;5.35;;;4.32;;
12780;SDS011;6454;43.304;24.344;2024-02-21T13:27:32;4.82;;;3.17;;
12780;SDS011;6454;43.304;24.344;2024-02-21T13:29:58;6.35;;;3.92;;
12780;SDS011;6454;43.304;24.344;2024-02-21T13:32:25;5.07;;;3.50;;
12780;SDS011;6454;43.304;24.344;2024-02-21T13:34:51;7.00;;;4.18;;
12780;SDS011;6454;43.304;24.344;2024-02-21T13:37:17;7.43;;;4.55;;
12780;SDS011;6454;43.304;24.344;2024-02-21T13:39:43;7.15;;;4.82;;
12780;SDS011;6454;43.304;24.344;2024-02-21T13:42:08;9.60;;;5.20;;
12780;SDS011;6454;43.304;24.344;2024-02-21T13:44:34;9.38;;;6.32;;
12780;SDS011;6454;43.304;24.344;2024-02-21T13:47:00;9.98;;;5.25;;
12780;SDS011;6454;43.304;24.344;2024-02-21T13:49:25;8.50;;;5.20;;
12780;SDS011;6454;43.304;24.344;2024-02-21T13:51:51;7.22;;;4.95;;
12780;SDS011;6454;43.304;24.344;2024-02-21T13:54:16;8.32;;;4.85;;
12780;SDS011;6454;43.304;24.344;2024-02-21T13:56:44;6.00;;;4.60;;
12780;SDS011;6454;43.304;24.344;2024-02-21T13:59:11;9.88;;;4.68;;
12780;SDS011;6454;43.304;24.344;2024-02-21T14:01:38;9.18;;;4.53;;
12780;SDS011;6454;43.304;24.344;2024-02-21T14:04:03;10.30;;;5.72;;
12780;SDS011;6454;43.304;24.344;2024-02-21T14:06:29;8.05;;;5.47;;
12780;SDS011;6454;43.304;24.344;2024-02-21T14:08:54;7.32;;;4.50;;
12780;SDS011;6454;43.304;24.344;2024-02-21T14:11:20;7.50;;;4.72;;
12780;SDS011;6454;43.304;24.344;2024-02-21T14:13:45;7.07;;;4.50;;
12780;SDS011;6454;43.304;24.344;2024-02-21T14:16:11;6.85;;;4.43;;
12780;SDS011;6454;43.304;24.344;2024-02-21T14:18:42;6.40;;;4.75;;
12780;SDS011;6454;43.304;24.344;2024-02-21T14:21:08;6.75;;;4.20;;
12780;SDS011;6454;43.304;24.344;2024-02-21T14:23:36;5.93;;;4.35;;
12780;SDS011;6454;43.304;24.344;2024-02-21T14:26:02;5.15;;;3.83;;
12780;SDS011;6454;43.304;24.344;2024-02-21T14:28:28;6.45;;;3.85;;
12780;SDS011;6454;43.304;24.344;2024-02-21T14:30:54;4.80;;;3.67;;
12780;SDS011;6454;43.304;24.344;2024-02-21T14:33:22;4.47;;;3.60;;
12780;SDS011;6454;43.304;24.344;2024-02-21T14:35:50;4.93;;;2.67;;
12780;SDS011;6454;43.304;24.344;2024-02-21T14:38:16;6.55;;;4.53;;
12780;SDS011;6454;43.304;24.344;2024-02-21T14:40:41;7.68;;;4.68;;
12780;SDS011;6454;43.304;24.344;2024-02-21T14:43:07;3.28;;;2.70;;
12780;SDS011;6454;43.304;24.344;2024-02-21T14:45:33;2.33;;;2.00;;
12780;SDS011;6454;43.304;24.344;2024-02-21T14:47:59;2.35;;;2.08;;
12780;SDS011;6454;43.304;24.344;2024-02-21T14:50:24;3.40;;;2.00;;
12780;SDS011;6454;43.304;24.344;2024-02-21T14:52:50;1.85;;;1.60;;
12780;SDS011;6454;43.304;24.344;2024-02-21T14:55:15;2.33;;;2.00;;
12780;SDS011;6454;43.304;24.344;2024-02-21T14:57:41;2.30;;;2.10;;